createdAt,value
2023-01-09T00:00:36.630Z,97835.06
2023-01-09T00:01:16.817Z,97849.16
2023-01-09T00:02:04.522Z,97842.00
2023-01-09T00:02:47.379Z,97828.72
2023-01-09T00:03:31.847Z,97834.97
2023-01-09T00:04:17.264Z,97827.56
2023-01-09T00:05:02.685Z,97829.50
2023-01-09T00:05:46.358Z,97826.31
2023-01-09T00:06:28.529Z,97842.00
2023-01-09T00:07:15.676Z,97833.38
2023-01-09T00:08:00.571Z,97850.19
2023-01-09T00:08:45.545Z,97838.81
2023-01-09T00:09:29.424Z,97827.47
2023-01-09T00:10:16.997Z,97826.31
2023-01-09T00:11:03.985Z,97843.03
2023-01-09T00:11:47.773Z,97835.63
2023-01-09T00:12:31.673Z,97841.53
2023-01-09T00:13:15.979Z,97832.56
2023-01-09T00:14:01.362Z,97835.63
2023-01-09T00:14:47.748Z,97831.78
2023-01-09T00:15:36.186Z,97830.28
2023-01-09T00:16:23.894Z,97818.94
2023-01-09T00:17:09.027Z,97837.34
2023-01-09T00:17:53.729Z,97832.56
2023-01-09T00:18:38.817Z,97832.91
2023-01-09T00:19:25.851Z,97834.16
2023-01-09T00:20:10.794Z,97830.53
2023-01-09T00:20:58.391Z,97829.06
2023-01-09T00:21:43.202Z,97834.03
2023-01-09T00:22:24.840Z,97831.31
2023-01-09T00:23:11.710Z,97839.84
2023-01-09T00:23:56.484Z,97828.94
2023-01-09T00:24:41.514Z,97846.44
2023-01-09T00:25:29.450Z,97827.00
2023-01-09T00:26:14.198Z,97831.31
2023-01-09T00:26:58.742Z,97823.59
2023-01-09T00:27:41.469Z,97829.06
2023-01-09T00:28:26.824Z,97824.72
2023-01-09T00:29:12.331Z,97821.56
2023-01-09T00:29:57.052Z,97821.56
2023-01-09T00:30:48.678Z,97831.31
2023-01-09T00:31:36.689Z,97826.66
2023-01-09T00:32:21.730Z,97821.22
2023-01-09T00:33:05.926Z,97822.34
2023-01-09T00:33:48.962Z,97821.22
2023-01-09T00:34:33.111Z,97836.09
2023-01-09T00:35:17.398Z,97834.50
2023-01-09T00:35:58.493Z,97825.53
2023-01-09T00:36:43.354Z,97830.19
2023-01-09T00:37:27.821Z,97827.91
2023-01-09T00:38:15.444Z,97824.72
2023-01-09T00:38:59.963Z,97822.34
2023-01-09T00:39:47.874Z,97829.84
2023-01-09T00:40:32.936Z,97839.94
2023-01-09T00:41:18.583Z,97824.72
2023-01-09T00:42:03.997Z,97832.47
2023-01-09T00:42:51.165Z,97825.06
2023-01-09T00:43:39.688Z,97826.66
2023-01-09T00:44:25.056Z,97828.59
2023-01-09T00:45:12.994Z,97830.19
2023-01-09T00:46:00.452Z,97832.13
2023-01-09T00:46:43.709Z,97830.97
2023-01-09T00:47:29.849Z,97828.72
2023-01-09T00:48:18.830Z,97833.38
2023-01-09T00:49:06.834Z,97831.78
2023-01-09T00:49:52.625Z,97836.78
2023-01-09T00:50:38.347Z,97830.97
2023-01-09T00:51:23.260Z,97835.63
2023-01-09T00:52:05.779Z,97837.22
2023-01-09T00:52:51.333Z,97831.78
2023-01-09T00:53:39.365Z,97841.44
2023-01-09T00:54:23.155Z,97833.47
2023-01-09T00:55:07.749Z,97835.28
2023-01-09T00:55:55.345Z,97837.56
2023-01-09T00:56:38.584Z,97835.28
2023-01-09T00:57:20.362Z,97838.81
2023-01-09T00:58:06.697Z,97839.28
2023-01-09T00:58:49.726Z,97851.31
2023-01-09T00:59:34.167Z,97843.94
2023-01-09T01:00:17.528Z,97842.34
2023-01-09T01:01:01.386Z,97852.44
2023-01-09T01:01:45.154Z,97848.59
2023-01-09T01:02:27.788Z,97850.84
2023-01-09T01:03:10.939Z,97849.25
2023-01-09T01:03:56.532Z,97834.97
2023-01-09T01:04:44.342Z,97845.41
2023-01-09T01:05:30.854Z,97846.19
2023-01-09T01:06:18.855Z,97848.94
2023-01-09T01:07:05.567Z,97847.78
2023-01-09T01:07:48.523Z,97853.91
2023-01-09T01:08:33.498Z,97851.66
2023-01-09T01:09:17.265Z,97852.00
2023-01-09T01:10:01.609Z,97846.53
2023-01-09T01:10:48.493Z,97850.50
2023-01-09T01:11:32.866Z,97850.84
2023-01-09T01:12:16.741Z,97841.19
2023-01-09T01:13:00.099Z,97853.91
2023-01-09T01:13:43.018Z,97850.19
2023-01-09T01:14:27.515Z,97856.31
2023-01-09T01:15:11.533Z,97844.94
2023-01-09T01:15:54.207Z,97849.72
2023-01-09T01:16:39.211Z,97861.75
2023-01-09T01:17:23.546Z,97849.72
2023-01-09T01:18:06.600Z,97848.13
2023-01-09T01:18:51.224Z,97843.94
2023-01-09T01:19:36.944Z,97851.66
2023-01-09T01:20:21.303Z,97849.72
2023-01-09T01:21:05.709Z,97849.25
2023-01-09T01:21:53.529Z,97844.16
2023-01-09T01:22:38.815Z,97858.13
2023-01-09T01:23:22.000Z,97847.22
2023-01-09T01:24:05.329Z,97845.28
2023-01-09T01:24:49.640Z,97845.41
2023-01-09T01:25:36.829Z,97845.41
2023-01-09T01:26:22.063Z,97846.88
2023-01-09T01:27:09.075Z,97854.38
2023-01-09T01:27:54.782Z,97852.34
2023-01-09T01:28:40.193Z,97854.72
2023-01-09T01:29:27.270Z,97854.72
2023-01-09T01:30:15.674Z,97857.44
2023-01-09T01:31:03.270Z,97855.16
2023-01-09T01:31:50.636Z,97848.47
2023-01-09T01:32:39.188Z,97852.00
2023-01-09T01:33:26.591Z,97857.09
2023-01-09T01:34:09.019Z,97854.72
2023-01-09T01:34:53.553Z,97854.72
2023-01-09T01:35:37.646Z,97843.81
2023-01-09T01:36:21.538Z,97849.59
2023-01-09T01:37:05.781Z,97852.00
2023-01-09T01:37:50.221Z,97848.47
2023-01-09T01:38:38.180Z,97851.19
2023-01-09T01:39:22.214Z,97859.03
2023-01-09T01:40:07.388Z,97853.25
2023-01-09T01:40:51.823Z,97854.72
2023-01-09T01:41:35.478Z,97851.53
2023-01-09T01:42:20.686Z,97852.66
2023-01-09T01:43:07.609Z,97854.25
2023-01-09T01:43:52.344Z,97850.84
2023-01-09T01:44:36.573Z,97853.13
2023-01-09T01:45:20.486Z,97844.94
2023-01-09T01:46:05.462Z,97854.25
2023-01-09T01:46:50.121Z,97851.19
2023-01-09T01:47:35.870Z,97859.38
2023-01-09T01:48:18.247Z,97850.41
2023-01-09T01:49:03.276Z,97851.19
2023-01-09T01:49:44.365Z,97847.69
2023-01-09T01:50:48.295Z,97855.84
2023-01-09T01:51:33.115Z,97858.56
2023-01-09T01:52:17.601Z,97863.22
2023-01-09T01:53:01.208Z,97853.47
2023-01-09T01:53:45.967Z,97857.31
2023-01-09T01:54:29.752Z,97858.91
2023-01-09T01:55:11.769Z,97860.84
2023-01-09T01:55:54.853Z,97858.91
2023-01-09T01:56:39.687Z,97857.44
2023-01-09T01:57:23.542Z,97860.63
2023-01-09T01:58:06.570Z,97851.19
2023-01-09T01:58:49.924Z,97864.38
2023-01-09T01:59:35.082Z,97853.91
2023-01-09T02:00:20.625Z,97857.00
2023-01-09T02:01:04.603Z,97866.75
2023-01-09T02:01:48.381Z,97860.50
2023-01-09T02:02:33.437Z,97856.41
2023-01-09T02:03:20.982Z,97850.41
2023-01-09T02:04:08.549Z,97865.72
2023-01-09T02:04:56.447Z,97854.38
2023-01-09T02:05:38.972Z,97858.56
2023-01-09T02:06:24.651Z,97858.69
2023-01-09T02:07:10.587Z,97859.03
2023-01-09T02:07:56.520Z,97862.91
2023-01-09T02:08:45.135Z,97862.91
2023-01-09T02:09:32.683Z,97862.91
2023-01-09T02:10:18.043Z,97865.97
2023-01-09T02:11:03.345Z,97868.69
2023-01-09T02:11:48.731Z,97864.38
2023-01-09T02:12:34.100Z,97865.16
2023-01-09T02:13:21.934Z,97866.41
2023-01-09T02:14:05.837Z,97860.16
2023-01-09T02:14:50.753Z,97862.91
2023-01-09T02:15:34.713Z,97861.06
2023-01-09T02:16:15.705Z,97867.22
2023-01-09T02:16:59.474Z,97867.22
2023-01-09T02:17:44.715Z,97867.22
2023-01-09T02:18:29.091Z,97871.97
2023-01-09T02:19:13.271Z,97870.72
2023-01-09T02:19:58.385Z,97873.56
2023-01-09T02:20:46.381Z,97873.47
2023-01-09T02:21:28.546Z,97873.78
2023-01-09T02:22:13.928Z,97870.72
2023-01-09T02:22:59.031Z,97871.53
2023-01-09T02:23:44.573Z,97871.97
2023-01-09T02:24:29.907Z,97879.72
2023-01-09T02:25:14.401Z,97871.19
2023-01-09T02:25:59.778Z,97878.22
2023-01-09T02:26:44.748Z,97877.88
2023-01-09T02:27:31.435Z,97871.97
2023-01-09T02:28:16.479Z,97867.66
2023-01-09T02:28:59.821Z,97870.72
2023-01-09T02:29:41.881Z,97873.47
2023-01-09T02:30:30.084Z,97881.63
2023-01-09T02:31:17.079Z,97875.84
2023-01-09T02:32:02.154Z,97882.88
2023-01-09T02:32:51.735Z,97873.47
2023-01-09T02:33:37.178Z,97891.84
2023-01-09T02:34:25.019Z,97883.69
2023-01-09T02:35:07.085Z,97881.28
2023-01-09T02:35:55.055Z,97883.00
2023-01-09T02:36:41.341Z,97890.72
2023-01-09T02:37:28.453Z,97884.94
2023-01-09T02:38:16.123Z,97885.16
2023-01-09T02:39:00.898Z,97883.56
2023-01-09T02:39:45.571Z,97890.16
2023-01-09T02:40:26.947Z,97887.88
2023-01-09T02:41:11.981Z,97893.34
2023-01-09T02:41:55.051Z,97881.75
2023-01-09T02:42:39.792Z,97878.13
2023-01-09T02:43:25.444Z,97889.13
2023-01-09T02:44:08.840Z,97890.72
2023-01-09T02:44:53.841Z,97882.09
2023-01-09T02:45:39.224Z,97888.44
2023-01-09T02:46:23.557Z,97893.22
2023-01-09T02:47:09.634Z,97890.50
2023-01-09T02:47:57.119Z,97891.06
2023-01-09T02:48:41.811Z,97888.00
2023-01-09T02:49:27.007Z,97880.97
2023-01-09T02:50:12.849Z,97881.19
2023-01-09T02:50:55.613Z,97886.41
2023-01-09T02:51:42.696Z,97883.47
2023-01-09T02:52:29.457Z,97879.47
2023-01-09T02:53:15.271Z,97881.19
2023-01-09T02:54:01.962Z,97882.22
2023-01-09T02:54:49.612Z,97880.72
2023-01-09T02:55:33.153Z,97879.47
2023-01-09T02:56:17.085Z,97882.66
2023-01-09T02:57:01.642Z,97878.00
2023-01-09T02:57:45.195Z,97880.72
2023-01-09T02:58:30.241Z,97870.84
2023-01-09T02:59:16.093Z,97883.69
2023-01-09T02:59:59.785Z,97877.56
2023-01-09T03:00:45.519Z,97884.94
2023-01-09T03:01:28.546Z,97875.50
2023-01-09T03:02:12.474Z,97870.84
2023-01-09T03:02:56.885Z,97873.34
2023-01-09T03:03:41.844Z,97874.03
2023-01-09T03:04:25.580Z,97873.00
2023-01-09T03:05:09.508Z,97869.03
2023-01-09T03:05:53.483Z,97868.22
2023-01-09T03:06:34.629Z,97869.94
2023-01-09T03:07:19.935Z,97869.03
2023-01-09T03:08:03.135Z,97872.22
2023-01-09T03:08:48.000Z,97874.03
2023-01-09T03:09:31.368Z,97873.56
2023-01-09T03:10:15.185Z,97880.28
2023-01-09T03:10:55.914Z,97879.94
2023-01-09T03:11:42.637Z,97887.44
2023-01-09T03:12:30.799Z,97874.59
2023-01-09T03:13:14.532Z,97877.66
2023-01-09T03:13:58.806Z,97883.13
2023-01-09T03:14:43.815Z,97874.13
2023-01-09T03:15:27.470Z,97878.47
2023-01-09T03:16:09.297Z,97878.91
2023-01-09T03:16:53.380Z,97883.47
2023-01-09T03:17:37.965Z,97881.97
2023-01-09T03:18:23.474Z,97875.72
2023-01-09T03:19:08.136Z,97873.69
2023-01-09T03:19:50.441Z,97870.50
2023-01-09T03:20:47.556Z,97883.00
2023-01-09T03:21:33.320Z,97873.34
2023-01-09T03:22:18.986Z,97875.16
2023-01-09T03:23:02.574Z,97876.75
2023-01-09T03:23:46.900Z,97878.69
2023-01-09T03:24:36.114Z,97878.00
2023-01-09T03:25:24.579Z,97884.13
2023-01-09T03:26:10.431Z,97879.59
2023-01-09T03:26:55.498Z,97887.66
2023-01-09T03:27:40.324Z,97884.13
2023-01-09T03:28:25.557Z,97888.13
2023-01-09T03:29:11.652Z,97886.97
2023-01-09T03:29:59.662Z,97883.47
2023-01-09T03:30:47.125Z,97885.84
2023-01-09T03:31:34.343Z,97882.66
2023-01-09T03:32:17.971Z,97890.84
2023-01-09T03:33:02.680Z,97885.38
2023-01-09T03:33:46.102Z,97891.28
2023-01-09T03:34:30.992Z,97892.09
2023-01-09T03:35:18.002Z,97891.75
2023-01-09T03:36:01.578Z,97899.25
2023-01-09T03:36:46.707Z,97890.97
2023-01-09T03:37:31.662Z,97891.75
2023-01-09T03:38:15.457Z,97891.41
2023-01-09T03:39:00.201Z,97893.69
2023-01-09T03:39:47.410Z,97905.72
2023-01-09T03:40:29.834Z,97900.94
2023-01-09T03:41:15.597Z,97908.78
2023-01-09T03:42:00.414Z,97914.25
2023-01-09T03:42:47.185Z,97916.97
2023-01-09T03:43:31.587Z,97913.00
2023-01-09T03:44:14.678Z,97921.28
2023-01-09T03:45:02.378Z,97926.28
2023-01-09T03:45:43.855Z,97932.19
2023-01-09T03:46:31.127Z,97934.47
2023-01-09T03:47:19.760Z,97932.53
2023-01-09T03:48:07.544Z,97941.16
2023-01-09T03:48:50.716Z,97939.69
2023-01-09T03:49:38.287Z,97947.06
2023-01-09T03:50:22.250Z,97949.47
2023-01-09T03:51:07.366Z,97944.69
2023-01-09T03:51:55.384Z,97945.81
2023-01-09T03:52:40.733Z,97947.88
2023-01-09T03:53:29.725Z,97949.81
2023-01-09T03:54:12.801Z,97954.78
2023-01-09T03:54:59.437Z,97949.69
2023-01-09T03:55:46.408Z,97956.38
2023-01-09T03:56:31.728Z,97951.72
2023-01-09T03:57:17.297Z,97951.72
2023-01-09T03:58:02.803Z,97956.06
2023-01-09T03:58:48.661Z,97961.50
2023-01-09T03:59:32.667Z,97954.47
2023-01-09T04:00:17.516Z,97955.25
2023-01-09T04:01:01.367Z,97962.97
2023-01-09T04:01:46.912Z,97958.31
2023-01-09T04:02:31.099Z,97961.03
2023-01-09T04:03:15.127Z,97959.00
2023-01-09T04:04:00.955Z,97962.97
2023-01-09T04:04:42.189Z,97961.03
2023-01-09T04:05:27.307Z,97961.03
2023-01-09T04:06:14.823Z,97960.06
2023-01-09T04:07:02.854Z,97967.75
2023-01-09T04:07:51.478Z,97969.69
2023-01-09T04:08:39.496Z,97964.56
2023-01-09T04:09:25.190Z,97963.44
2023-01-09T04:10:10.766Z,97959.56
2023-01-09T04:10:55.813Z,97956.84
2023-01-09T04:11:41.596Z,97957.53
2023-01-09T04:12:29.123Z,97959.56
2023-01-09T04:13:13.788Z,97965.69
2023-01-09T04:14:01.208Z,97964.91
2023-01-09T04:14:47.060Z,97966.50
2023-01-09T04:15:30.613Z,97968.44
2023-01-09T04:16:16.441Z,97975.81
2023-01-09T04:17:02.227Z,97966.38
2023-01-09T04:17:48.311Z,97966.72
2023-01-09T04:18:36.631Z,97969.22
2023-01-09T04:19:22.848Z,97964.56
2023-01-09T04:20:09.524Z,97965.25
2023-01-09T04:20:55.456Z,97968.09
2023-01-09T04:21:39.578Z,97969.56
2023-01-09T04:22:20.621Z,97964.22
2023-01-09T04:23:07.353Z,97968.09
2023-01-09T04:23:56.204Z,97968.09
2023-01-09T04:24:43.274Z,97975.00
2023-01-09T04:25:27.605Z,97966.03
2023-01-09T04:26:11.089Z,97970.81
2023-01-09T04:26:53.298Z,97967.63
2023-01-09T04:27:39.078Z,97966.16
2023-01-09T04:28:24.031Z,97974.78
2023-01-09T04:29:08.232Z,97972.56
2023-01-09T04:29:52.727Z,97975.59
2023-01-09T04:30:37.234Z,97979.00
2023-01-09T04:31:22.490Z,97974.22
2023-01-09T04:32:09.307Z,97977.41
2023-01-09T04:32:54.162Z,97974.69
2023-01-09T04:33:39.472Z,97978.88
2023-01-09T04:34:24.961Z,97978.09
2023-01-09T04:35:12.157Z,97980.13
2023-01-09T04:35:58.324Z,97979.00
2023-01-09T04:36:46.093Z,97984.00
2023-01-09T04:37:31.230Z,97978.19
2023-01-09T04:38:19.549Z,97976.28
2023-01-09T04:39:07.676Z,97978.66
2023-01-09T04:39:53.022Z,97983.19
2023-01-09T04:40:37.661Z,97985.59
2023-01-09T04:41:22.651Z,97991.38
2023-01-09T04:42:09.471Z,97991.72
2023-01-09T04:42:53.127Z,97989.66
2023-01-09T04:43:37.589Z,97990.47
2023-01-09T04:44:21.025Z,97989.66
2023-01-09T04:45:10.049Z,97989.78
2023-01-09T04:45:53.865Z,97988.31
2023-01-09T04:46:41.435Z,97989.78
2023-01-09T04:47:26.328Z,97995.34
2023-01-09T04:48:08.608Z,97997.75
2023-01-09T04:48:56.593Z,97993.75
2023-01-09T04:49:43.959Z,97991.84
2023-01-09T04:50:29.024Z,97986.72
2023-01-09T04:51:14.079Z,97993.31
2023-01-09T04:51:58.568Z,97988.97
2023-01-09T04:52:44.001Z,97992.16
2023-01-09T04:53:29.930Z,97996.50
2023-01-09T04:54:15.407Z,97994.91
2023-01-09T04:55:00.042Z,97999.09
2023-01-09T04:55:44.363Z,97997.03
2023-01-09T04:56:31.057Z,97991.38
2023-01-09T04:57:15.526Z,97994.78
2023-01-09T04:58:00.088Z,97992.50
2023-01-09T04:58:45.158Z,97999.09
2023-01-09T04:59:29.064Z,97996.38
2023-01-09T05:00:13.307Z,98002.63
2023-01-09T05:01:00.606Z,98015.78
2023-01-09T05:01:44.680Z,98004.53
2023-01-09T05:02:28.541Z,98007.94
2023-01-09T05:03:13.750Z,98004.88
2023-01-09T05:03:55.830Z,98005.69
2023-01-09T05:04:41.276Z,98010.78
2023-01-09T05:05:28.474Z,98002.16
2023-01-09T05:06:12.487Z,98004.22
2023-01-09T05:06:57.105Z,97999.22
2023-01-09T05:07:41.344Z,98002.16
2023-01-09T05:08:25.850Z,97999.78
2023-01-09T05:09:08.333Z,97997.38
2023-01-09T05:09:53.436Z,97996.59
2023-01-09T05:10:37.234Z,98002.38
2023-01-09T05:11:21.743Z,98002.16
2023-01-09T05:12:05.779Z,97999.56
2023-01-09T05:12:49.396Z,98007.59
2023-01-09T05:13:33.245Z,98005.81
2023-01-09T05:14:14.651Z,98016.25
2023-01-09T05:14:57.508Z,98015.13
2023-01-09T05:15:50.304Z,98009.66
2023-01-09T05:16:35.196Z,98017.03
2023-01-09T05:17:20.662Z,98012.06
2023-01-09T05:18:04.661Z,98017.03
2023-01-09T05:18:50.578Z,98018.97
2023-01-09T05:19:36.899Z,98011.25
2023-01-09T05:20:22.092Z,98012.84
2023-01-09T05:21:10.491Z,98015.44
2023-01-09T05:21:58.092Z,98019.78
2023-01-09T05:22:43.048Z,98021.69
2023-01-09T05:23:30.689Z,98021.38
2023-01-09T05:24:15.411Z,98027.16
2023-01-09T05:25:00.278Z,98020.44
2023-01-09T05:25:39.937Z,98022.16
2023-01-09T05:26:28.971Z,98031.00
2023-01-09T05:27:15.190Z,98019.78
2023-01-09T05:28:02.553Z,98030.34
2023-01-09T05:28:50.879Z,98036.00
2023-01-09T05:29:36.336Z,98037.38
2023-01-09T05:30:20.114Z,98032.94
2023-01-09T05:31:01.304Z,98036.13
2023-01-09T05:31:48.661Z,98027.50
2023-01-09T05:32:35.544Z,98031.47
2023-01-09T05:33:20.848Z,98036.94
2023-01-09T05:34:08.428Z,98032.59
2023-01-09T05:34:52.417Z,98037.59
2023-01-09T05:35:36.511Z,98036.34
2023-01-09T05:36:17.099Z,98037.25
2023-01-09T05:37:02.651Z,98037.25
2023-01-09T05:37:47.813Z,98034.66
2023-01-09T05:38:31.817Z,98038.97
2023-01-09T05:39:15.337Z,98038.06
2023-01-09T05:39:59.001Z,98042.03
2023-01-09T05:40:43.678Z,98038.84
2023-01-09T05:41:26.670Z,98040.13
2023-01-09T05:42:09.718Z,98040.78
2023-01-09T05:42:52.229Z,98040.78
2023-01-09T05:43:36.993Z,98038.06
2023-01-09T05:44:20.377Z,98036.81
2023-01-09T05:45:10.115Z,98035.22
2023-01-09T05:45:53.351Z,98035.34
2023-01-09T05:46:37.170Z,98044.19
2023-01-09T05:47:21.721Z,98034.41
2023-01-09T05:48:03.534Z,98042.59
2023-01-09T05:48:46.988Z,98042.72
2023-01-09T05:49:30.316Z,98038.72
2023-01-09T05:50:13.936Z,98036.00
2023-01-09T05:50:58.247Z,98032.16
2023-01-09T05:51:43.125Z,98045.78
2023-01-09T05:52:27.273Z,98037.38
2023-01-09T05:53:09.466Z,98035.66
2023-01-09T05:53:56.772Z,98032.81
2023-01-09T05:54:42.135Z,98036.69
2023-01-09T05:55:26.626Z,98031.22
2023-01-09T05:56:11.676Z,98037.47
2023-01-09T05:56:55.676Z,98034.41
2023-01-09T05:57:43.821Z,98040.19
2023-01-09T05:58:28.388Z,98037.81
2023-01-09T05:59:12.975Z,98039.41
2023-01-09T05:59:57.057Z,98036.81
2023-01-09T06:00:43.788Z,98035.53
2023-01-09T06:01:29.718Z,98042.13
2023-01-09T06:02:14.848Z,98038.72
2023-01-09T06:03:00.527Z,98038.59
2023-01-09T06:03:45.839Z,98037.13
2023-01-09T06:04:32.287Z,98037.13
2023-01-09T06:05:18.986Z,98037.47
2023-01-09T06:06:03.971Z,98039.41
2023-01-09T06:06:47.927Z,98046.44
2023-01-09T06:07:32.429Z,98047.59
2023-01-09T06:08:18.198Z,98046.91
2023-01-09T06:09:01.017Z,98053.84
2023-01-09T06:09:43.083Z,98041.00
2023-01-09T06:10:27.548Z,98037.94
2023-01-09T06:11:11.907Z,98040.66
2023-01-09T06:11:55.815Z,98045.31
2023-01-09T06:12:41.218Z,98042.47
2023-01-09T06:13:29.091Z,98041.00
2023-01-09T06:14:11.372Z,98041.78
2023-01-09T06:14:58.180Z,98033.28
2023-01-09T06:15:57.632Z,98041.34
2023-01-09T06:16:42.646Z,98042.25
2023-01-09T06:17:27.923Z,98034.88
2023-01-09T06:18:14.248Z,98045.66
2023-01-09T06:19:02.133Z,98041.47
2023-01-09T06:19:47.651Z,98046.44
2023-01-09T06:20:29.913Z,98048.38
2023-01-09T06:21:15.835Z,98050.78
2023-01-09T06:22:00.500Z,98036.69
2023-01-09T06:22:45.485Z,98046.78
2023-01-09T06:23:30.334Z,98035.88
2023-01-09T06:24:15.411Z,98051.44
2023-01-09T06:25:04.151Z,98052.25
2023-01-09T06:25:49.738Z,98042.47
2023-01-09T06:26:31.863Z,98049.19
2023-01-09T06:27:15.455Z,98040.53
2023-01-09T06:27:59.112Z,98057.69
2023-01-09T06:28:44.634Z,98051.44
2023-01-09T06:29:28.271Z,98047.59
2023-01-09T06:30:11.128Z,98053.03
2023-01-09T06:30:52.923Z,98048.72
2023-01-09T06:31:35.636Z,98045.53
2023-01-09T06:32:20.485Z,98048.38
2023-01-09T06:33:07.297Z,98055.31
2023-01-09T06:33:50.767Z,98054.16
2023-01-09T06:34:34.272Z,98045.53
2023-01-09T06:35:18.146Z,98049.84
2023-01-09T06:35:59.744Z,98052.56
2023-01-09T06:36:48.037Z,98049.84
2023-01-09T06:37:36.840Z,98045.53
2023-01-09T06:38:22.155Z,98053.25
2023-01-09T06:39:10.099Z,98059.97
2023-01-09T06:39:53.931Z,98054.16
2023-01-09T06:40:41.215Z,98056.91
2023-01-09T06:41:26.098Z,98051.56
2023-01-09T06:42:13.320Z,98063.16
2023-01-09T06:42:58.992Z,98062.47
2023-01-09T06:43:47.024Z,98053.38
2023-01-09T06:44:35.150Z,98056.91
2023-01-09T06:45:22.705Z,98062.34
2023-01-09T06:46:07.302Z,98053.72
2023-01-09T06:46:48.854Z,98056.91
2023-01-09T06:47:32.620Z,98055.63
2023-01-09T06:48:17.583Z,98057.69
2023-01-09T06:49:01.272Z,98045.31
2023-01-09T06:49:45.522Z,98057.69
2023-01-09T06:50:28.953Z,98048.38
2023-01-09T06:51:13.662Z,98053.03
2023-01-09T06:51:55.869Z,98055.31
2023-01-09T06:52:41.039Z,98061.56
2023-01-09T06:53:25.306Z,98053.72
2023-01-09T06:54:10.196Z,98051.31
2023-01-09T06:54:54.091Z,98063.81
2023-01-09T06:55:38.269Z,98059.16
2023-01-09T06:56:23.070Z,98068.47
2023-01-09T06:57:05.206Z,98060.28
2023-01-09T06:57:49.801Z,98067.66
2023-01-09T06:58:34.332Z,98069.72
2023-01-09T06:59:19.652Z,98058.50
2023-01-09T07:00:05.801Z,98059.97
2023-01-09T07:00:50.176Z,98062.69
2023-01-09T07:01:36.888Z,98061.56
2023-01-09T07:02:19.587Z,98056.78
2023-01-09T07:03:06.117Z,98075.84
2023-01-09T07:03:53.642Z,98060.28
2023-01-09T07:04:38.117Z,98066.88
2023-01-09T07:05:22.024Z,98067.66
2023-01-09T07:06:08.469Z,98068.00
2023-01-09T07:06:54.061Z,98072.44
2023-01-09T07:07:38.879Z,98062.22
2023-01-09T07:08:22.000Z,98066.88
2023-01-09T07:09:09.685Z,98074.25
2023-01-09T07:09:54.350Z,98065.28
2023-01-09T07:10:38.637Z,98064.94
2023-01-09T07:11:23.735Z,98076.31
2023-01-09T07:12:11.790Z,98068.47
2023-01-09T07:12:57.235Z,98069.59
2023-01-09T07:13:44.977Z,98070.88
2023-01-09T07:14:30.558Z,98073.59
2023-01-09T07:15:19.159Z,98070.06
2023-01-09T07:16:06.801Z,98071.66
2023-01-09T07:16:52.341Z,98068.47
2023-01-09T07:17:40.566Z,98076.78
2023-01-09T07:18:25.842Z,98076.31
2023-01-09T07:19:10.381Z,98093.81
2023-01-09T07:19:56.174Z,98080.28
2023-01-09T07:20:44.539Z,98091.88
2023-01-09T07:21:33.067Z,98083.69
2023-01-09T07:22:20.284Z,98085.28
2023-01-09T07:23:06.580Z,98093.47
2023-01-09T07:23:52.021Z,98082.09
2023-01-09T07:24:37.354Z,98083.69
2023-01-09T07:25:25.672Z,98088.00
2023-01-09T07:26:13.898Z,98079.03
2023-01-09T07:27:01.684Z,98075.50
2023-01-09T07:27:46.949Z,98074.03
2023-01-09T07:28:32.502Z,98078.25
2023-01-09T07:29:17.157Z,98083.69
2023-01-09T07:29:58.936Z,98071.66
2023-01-09T07:30:52.752Z,98074.38
2023-01-09T07:31:41.324Z,98085.41
2023-01-09T07:32:29.156Z,98082.22
2023-01-09T07:33:17.851Z,98076.78
2023-01-09T07:34:05.021Z,98080.63
2023-01-09T07:34:45.971Z,98077.44
2023-01-09T07:35:34.501Z,98086.41
2023-01-09T07:36:18.528Z,98089.16
2023-01-09T07:37:02.363Z,98095.72
2023-01-09T07:37:49.233Z,98076.97
2023-01-09T07:38:34.148Z,98084.38
2023-01-09T07:39:18.539Z,98094.94
2023-01-09T07:40:00.525Z,98080.84
2023-01-09T07:40:46.051Z,98075.38
2023-01-09T07:41:30.658Z,98087.56
2023-01-09T07:42:18.638Z,98076.66
2023-01-09T07:43:04.968Z,98085.63
2023-01-09T07:43:52.455Z,98077.44
2023-01-09T07:44:37.216Z,98075.50
2023-01-09T07:45:19.859Z,98078.25
2023-01-09T07:46:04.574Z,98077.13
2023-01-09T07:46:48.579Z,98085.16
2023-01-09T07:47:33.486Z,98071.53
2023-01-09T07:48:19.407Z,98077.78
2023-01-09T07:49:04.279Z,98078.56
2023-01-09T07:49:48.307Z,98071.88
2023-01-09T07:50:31.613Z,98069.13
2023-01-09T07:51:14.199Z,98083.22
2023-01-09T07:51:58.874Z,98082.44
2023-01-09T07:52:46.839Z,98072.31
2023-01-09T07:53:30.864Z,98078.25
2023-01-09T07:54:14.715Z,98076.97
2023-01-09T07:54:59.378Z,98071.88
2023-01-09T07:55:41.164Z,98075.06
2023-01-09T07:56:24.789Z,98080.84
2023-01-09T07:57:10.297Z,98078.44
2023-01-09T07:57:54.639Z,98079.38
2023-01-09T07:58:38.662Z,98082.09
2023-01-09T07:59:26.906Z,98084.38
2023-01-09T08:00:15.146Z,98077.31
2023-01-09T08:01:01.734Z,98089.34
2023-01-09T08:01:48.006Z,98099.59
2023-01-09T08:02:35.756Z,98094.59
2023-01-09T08:03:21.086Z,98088.22
2023-01-09T08:04:08.302Z,98087.09
2023-01-09T08:04:54.105Z,98085.97
2023-01-09T08:05:42.513Z,98080.16
2023-01-09T08:06:25.456Z,98084.38
2023-01-09T08:07:11.282Z,98087.56
2023-01-09T08:07:59.594Z,98069.94
2023-01-09T08:08:45.882Z,98090.94
2023-01-09T08:09:34.066Z,98091.63
2023-01-09T08:10:22.050Z,98089.69
2023-01-09T08:11:10.341Z,98083.91
2023-01-09T08:11:56.891Z,98084.22
2023-01-09T08:12:39.800Z,98068.22
2023-01-09T08:13:24.657Z,98080.25
2023-01-09T08:14:11.107Z,98081.03
2023-01-09T08:14:56.975Z,98086.97
2023-01-09T08:15:54.422Z,98089.34
2023-01-09T08:16:39.587Z,98091.28
2023-01-09T08:17:20.976Z,98086.63
2023-01-09T08:18:06.203Z,98103.31
2023-01-09T08:18:54.504Z,98107.16
2023-01-09T08:19:41.173Z,98088.56
2023-01-09T08:20:25.280Z,98086.97
2023-01-09T08:21:12.592Z,98097.53
2023-01-09T08:21:58.771Z,98097.06
2023-01-09T08:22:42.096Z,98094.47
2023-01-09T08:23:27.731Z,98094.47
2023-01-09T08:24:11.444Z,98106.50
2023-01-09T08:24:55.563Z,98114.22
2023-01-09T08:25:38.998Z,98090.47
2023-01-09T08:26:22.784Z,98102.97
2023-01-09T08:27:07.326Z,98103.31
2023-01-09T08:27:48.658Z,98094.00
2023-01-09T08:28:33.144Z,98093.22
2023-01-09T08:29:21.264Z,98109.56
2023-01-09T08:30:09.980Z,98094.34
2023-01-09T08:30:54.353Z,98103.66
2023-01-09T08:31:42.593Z,98097.53
2023-01-09T08:32:30.069Z,98099.00
2023-01-09T08:33:12.495Z,98099.91
2023-01-09T08:33:57.380Z,98105.72
2023-01-09T08:34:44.406Z,98096.28
2023-01-09T08:35:30.349Z,98107.16
2023-01-09T08:36:15.574Z,98095.47
2023-01-09T08:37:02.724Z,98099.47
2023-01-09T08:37:47.429Z,98100.59
2023-01-09T08:38:32.096Z,98118.22
2023-01-09T08:39:21.219Z,98100.94
2023-01-09T08:40:08.862Z,98099.91
2023-01-09T08:40:52.701Z,98095.94
2023-01-09T08:41:37.583Z,98100.72
2023-01-09T08:42:22.132Z,98104.56
2023-01-09T08:43:07.121Z,98099.13
2023-01-09T08:43:54.948Z,98113.41
2023-01-09T08:44:40.690Z,98105.25
2023-01-09T08:45:26.305Z,98102.53
2023-01-09T08:46:08.673Z,98107.97
2023-01-09T08:46:53.646Z,98102.06
2023-01-09T08:47:37.742Z,98103.31
2023-01-09T08:48:21.943Z,98103.66
2023-01-09T08:49:09.304Z,98114.22
2023-01-09T08:49:53.628Z,98104.13
2023-01-09T08:50:37.864Z,98110.69
2023-01-09T08:51:13.418Z,98115.81
2023-01-09T08:51:44.848Z,98134.09